Aérodrome :
LOGIN :

S'inscrire | Disclaimer

   EN    FR    IT 

 










Légende :    VFR   VFR Marginal   IFR   IFR Intensif   IFR Très Intensif
Visi : 
Plafond : 
>= 8 km
>= 3000ft
5 à 8 km
1000 à 3000 ft
1500m à 5 km
500 à 1000 ft
800 à 1500m
200 à 500 ft
< 800m
< 200 ft
Symboles :   Orages  Brouillard  Fortes neiges  Fortes précipitations  Vent > 20 kt
SIGMETs :   Divers  Orages  Givrage  Turbulence  Onde Orograph.  Cendres Volcan.






- Altitude de l'aérodrome : 265 ft
- Code IATA : BJY


LYBT - Batajnica Air Base

DERNIER METAR :
  • 141330Z 25010KT 220V280 9999 BKN010 06/05 Q1003 NOSIG

METARs EXPIRÉS :
  • 141300Z 23009KT 8000 BKN010 06/05 Q1002 NOSIG
  • 141230Z 21010KT 190V250 6000 BKN008 06/06 Q1002 NOSIG
  • 141200Z 22010KT 8000 BKN008 06/06 Q1001 NOSIG
  • 141130Z 23011KT 9999 BKN008 06/06 Q1001 NOSIG
  • 141100Z 23012KT 9999 BKN008 06/06 Q1001 NOSIG

TAF TAF LYBT
Valide du 14 à 12h jusqu'au 15 à 12h UTC


141100Z 1412/1512 26012KT 7000 BKN007 BKN030 TX14/1512Z TN01/1502Z
BECMG 1415/1417 20005KT SCT040
BECMG 1418/1420 3000 BR
BECMG 1420/1422 1200
PROB40
TEMPO 1500/1506 0500 FG
BECMG 1507/1509 14010KT 9999 NSW



MET'MAP, la Météo Aéronautique d'un coup d'oeil ! - Copyright ORBIFLY Décembre 2007 - Disclaimer

ORBIFLY MET'MAP TEAM :

Programmation & Développement : Alexandra Zaïnal
Sur une idée originale de : Baudouin d'Aumeries
Assistance à la programmation : Marc-Olivier Méhu
Soutien technique & logistique : Manuel Goepfert

Contact : metmap@orbifly.com




SOURCES & CREDITS :

   NOAA